Time;durP1;ratioP1;P1;durP2;ratioP2;P2;SDS_P1;SDS_P2;PMS_P1;PMS_P2;Temp;Humidity;BMP_temperature;BMP_pressure;BME280_temperature;BME280_humidity;BME280_pressure;Samples;Min_cycle;Max_cycle;Signal;HPM_P1;HPM_P2
2022/09/15 00:00:58;;;;;;;3.28;1.00;;;12.60;99.90;;;;;;6237080;28;20189;-68
2022/09/15 00:04:04;;;;;;;5.13;1.05;;;12.60;99.90;;;;;;6236289;28;20233;-68
2022/09/15 00:07:12;;;;;;;4.22;0.90;;;12.70;99.90;;;;;;6236949;28;20191;-67
2022/09/15 00:10:17;;;;;;;1.13;0.60;;;12.60;99.90;;;;;;6236196;28;20429;-67
2022/09/15 00:13:22;;;;;;;1.00;0.88;;;12.60;99.90;;;;;;6236494;28;20244;-68
2022/09/15 00:16:30;;;;;;;4.30;0.98;;;12.60;99.90;;;;;;6236372;28;20484;-67
2022/09/15 00:19:34;;;;;;;2.17;0.80;;;12.50;99.90;;;;;;6236512;28;20229;-68
2022/09/15 00:22:40;;;;;;;4.85;0.85;;;12.40;99.90;;;;;;6236255;28;20196;-68
2022/09/15 00:25:47;;;;;;;4.07;0.88;;;12.40;99.90;;;;;;6236749;28;20257;-68
2022/09/15 00:28:52;;;;;;;3.63;0.80;;;12.40;99.90;;;;;;6236192;28;20235;-69
2022/09/15 00:31:56;;;;;;;9.02;1.30;;;12.40;99.90;;;;;;6236763;28;20209;-68
2022/09/15 00:35:00;;;;;;;0.85;0.77;;;12.30;99.90;;;;;;6236251;28;20294;-68
2022/09/15 00:38:06;;;;;;;9.35;1.23;;;12.30;99.90;;;;;;6235818;28;20463;-68
2022/09/15 00:41:14;;;;;;;6.43;0.80;;;12.30;99.90;;;;;;6236253;28;20379;-68
2022/09/15 00:44:56;;;;;;;5.65;0.85;;;12.30;99.90;;;;;;6235912;28;20300;-68
2022/09/15 00:48:01;;;;;;;7.22;1.10;;;12.30;99.90;;;;;;6240580;28;20487;-68
2022/09/15 00:51:07;;;;;;;1.60;0.90;;;12.30;99.90;;;;;;6241109;28;20213;-68
2022/09/15 00:54:17;;;;;;;3.40;0.90;;;12.30;99.90;;;;;;6240712;28;20228;-68
2022/09/15 00:57:26;;;;;;;1.17;0.82;;;12.20;99.90;;;;;;6240679;28;20313;-68
2022/09/15 01:00:30;;;;;;;12.30;1.08;;;12.20;99.90;;;;;;6240677;28;20214;-68
2022/09/15 01:03:35;;;;;;;4.65;1.48;;;12.20;99.90;;;;;;6240221;28;20304;-68
2022/09/15 01:06:44;;;;;;;1.42;0.85;;;12.20;99.90;;;;;;6240423;28;20491;-68
2022/09/15 01:09:53;;;;;;;3.67;0.70;;;12.20;99.90;;;;;;6239101;28;20546;-68
2022/09/15 01:13:00;;;;;;;2.25;0.90;;;12.20;99.90;;;;;;6240569;28;20240;-67
2022/09/15 01:16:15;;;;;;;1.35;0.98;;;12.20;99.90;;;;;;6240706;28;20224;-67
2022/09/15 01:19:58;;;;;;;5.10;0.90;;;12.20;99.90;;;;;;6240316;28;20297;-67
2022/09/15 01:23:58;;;;;;;0.98;0.88;;;12.10;99.90;;;;;;6232134;28;20508;-68
2022/09/15 01:27:26;;;;;;;4.10;0.80;;;12.10;99.90;;;;;;6216402;28;20263;-68
2022/09/15 01:30:49;;;;;;;3.42;0.80;;;12.10;99.90;;;;;;6237538;28;20225;-68
2022/09/15 01:34:01;;;;;;;1.60;1.27;;;12.00;99.90;;;;;;6239719;28;20229;-68
2022/09/15 01:37:09;;;;;;;2.00;1.33;;;12.10;99.90;;;;;;6240103;28;20192;-68
2022/09/15 01:40:16;;;;;;;0.60;0.60;;;12.00;99.90;;;;;;6239617;28;20296;-68
2022/09/15 01:43:23;;;;;;;0.70;0.68;;;12.00;99.90;;;;;;6239565;28;20407;-69
2022/09/15 01:46:33;;;;;;;3.00;0.85;;;12.00;99.90;;;;;;6239919;28;20190;-68
2022/09/15 01:49:42;;;;;;;4.13;0.93;;;12.00;99.90;;;;;;6239328;28;20615;-68
2022/09/15 01:52:48;;;;;;;0.90;0.90;;;11.90;99.90;;;;;;6238860;28;20412;-68
2022/09/15 01:55:56;;;;;;;0.70;0.70;;;11.90;99.90;;;;;;6239698;28;20185;-68
2022/09/15 01:59:01;;;;;;;1.25;1.00;;;11.80;99.90;;;;;;6239344;28;20252;-68
2022/09/15 02:02:11;;;;;;;2.55;0.95;;;11.90;99.90;;;;;;6239420;28;20199;-68
2022/09/15 02:05:24;;;;;;;1.45;0.80;;;11.90;99.90;;;;;;6214748;28;20229;-68
2022/09/15 02:08:37;;;;;;;1.65;0.85;;;11.90;99.90;;;;;;6214317;28;20237;-68
2022/09/15 02:11:51;;;;;;;0.75;0.73;;;11.90;99.90;;;;;;6214398;28;20641;-68
2022/09/15 02:14:59;;;;;;;1.45;0.77;;;11.90;99.90;;;;;;6214317;28;20540;-68
2022/09/15 02:18:09;;;;;;;0.80;0.80;;;11.90;99.90;;;;;;6214423;28;20267;-68
2022/09/15 02:21:17;;;;;;;8.05;0.90;;;11.80;99.90;;;;;;6214382;28;20418;-68
2022/09/15 02:24:29;;;;;;;0.80;0.80;;;11.90;99.90;;;;;;6214108;28;20233;-68
2022/09/15 02:27:39;;;;;;;4.55;1.00;;;11.90;99.90;;;;;;6213137;28;20321;-68
2022/09/15 02:30:45;;;;;;;0.90;0.90;;;11.90;99.90;;;;;;6214547;28;20194;-68
2022/09/15 02:33:55;;;;;;;3.70;1.00;;;11.90;99.90;;;;;;6213876;28;20256;-67
2022/09/15 02:37:00;;;;;;;1.45;0.93;;;11.90;99.90;;;;;;6214333;28;20297;-67
2022/09/15 02:40:06;;;;;;;1.65;1.35;;;11.80;99.90;;;;;;6213895;28;20423;-67
2022/09/15 02:43:14;;;;;;;1.48;0.80;;;11.90;99.90;;;;;;6213475;28;20297;-68
2022/09/15 02:46:21;;;;;;;1.58;1.00;;;11.80;99.90;;;;;;6213794;28;20374;-67
2022/09/15 02:49:27;;;;;;;1.75;0.75;;;11.80;99.90;;;;;;6213752;28;20229;-67
2022/09/15 02:52:31;;;;;;;0.90;0.80;;;11.80;99.90;;;;;;6213594;28;20224;-68
2022/09/15 02:55:35;;;;;;;1.50;0.90;;;11.80;99.90;;;;;;6213598;28;20214;-68
2022/09/15 02:58:39;;;;;;;0.90;0.90;;;11.80;99.90;;;;;;6213478;28;20236;-68
2022/09/15 03:01:43;;;;;;;1.13;1.00;;;11.80;99.90;;;;;;6212846;28;20198;-68
2022/09/15 03:04:50;;;;;;;2.53;0.90;;;11.70;99.90;;;;;;6234139;28;20417;-68
2022/09/15 03:07:55;;;;;;;1.88;0.80;;;11.70;99.90;;;;;;6236589;28;20436;-68
2022/09/15 03:10:59;;;;;;;1.13;1.00;;;11.70;99.90;;;;;;6237940;28;20252;-68
2022/09/15 03:14:05;;;;;;;3.47;1.10;;;11.70;99.90;;;;;;6237451;28;20441;-68
2022/09/15 03:17:09;;;;;;;1.55;0.88;;;11.70;99.90;;;;;;6237392;28;20261;-68
2022/09/15 03:20:18;;;;;;;0.82;0.82;;;11.70;99.90;;;;;;6237399;28;20204;-68
2022/09/15 03:23:22;;;;;;;1.17;0.98;;;11.70;99.90;;;;;;6237106;28;20304;-68
2022/09/15 03:26:27;;;;;;;3.28;1.00;;;11.70;99.90;;;;;;6237739;28;20186;-68
2022/09/15 03:29:31;;;;;;;2.33;1.10;;;11.70;99.90;;;;;;6237188;28;20233;-68
2022/09/15 03:32:35;;;;;;;0.90;0.90;;;11.60;99.90;;;;;;6237130;28;20307;-68
2022/09/15 03:35:41;;;;;;;1.00;1.00;;;11.70;99.90;;;;;;6237094;28;20236;-68
2022/09/15 03:38:45;;;;;;;1.08;1.08;;;11.70;99.90;;;;;;6236843;28;20229;-68
2022/09/15 03:41:49;;;;;;;4.07;1.00;;;11.70;99.90;;;;;;6236978;28;20261;-68
2022/09/15 03:44:53;;;;;;;1.00;1.00;;;11.70;99.90;;;;;;6237184;28;20229;-68
2022/09/15 03:47:57;;;;;;;0.85;0.85;;;11.70;99.90;;;;;;6246031;28;20254;-68
2022/09/15 03:51:05;;;;;;;1.02;0.90;;;11.70;99.90;;;;;;6261458;28;20188;-68
2022/09/15 03:54:10;;;;;;;1.00;1.00;;;11.60;99.90;;;;;;6261151;28;20228;-68
2022/09/15 03:57:14;;;;;;;0.65;0.65;;;11.60;99.90;;;;;;6261193;28;20232;-68
2022/09/15 04:00:19;;;;;;;4.18;1.17;;;11.60;99.90;;;;;;6260517;28;20219;-68
2022/09/15 04:03:23;;;;;;;2.30;1.05;;;11.60;99.90;;;;;;6260584;28;20421;-68
2022/09/15 04:06:30;;;;;;;2.25;1.10;;;11.60;99.90;;;;;;6261588;28;20192;-68
2022/09/15 04:09:36;;;;;;;1.55;1.15;;;11.60;99.90;;;;;;6260945;28;20444;-68
2022/09/15 04:12:40;;;;;;;1.00;1.00;;;11.50;99.90;;;;;;6254366;28;20344;-68
2022/09/15 04:15:44;;;;;;;5.18;0.90;;;11.60;99.90;;;;;;6236536;28;20389;-68
2022/09/15 04:18:49;;;;;;;2.80;1.20;;;11.60;99.90;;;;;;6236249;28;20251;-68
2022/09/15 04:21:54;;;;;;;1.55;1.00;;;11.60;99.90;;;;;;6241186;28;20221;-68
2022/09/15 04:24:58;;;;;;;1.02;1.02;;;11.60;99.90;;;;;;6241542;28;20483;-68
2022/09/15 04:28:03;;;;;;;4.55;1.10;;;11.60;99.90;;;;;;6241474;28;20319;-69
2022/09/15 04:31:09;;;;;;;3.97;1.30;;;11.60;99.90;;;;;;6241837;28;20256;-68
2022/09/15 04:34:13;;;;;;;1.20;1.20;;;11.60;99.90;;;;;;6240995;28;20554;-68
2022/09/15 04:37:19;;;;;;;1.20;0.90;;;11.60;99.90;;;;;;6241101;28;20232;-69
2022/09/15 04:40:24;;;;;;;1.40;1.25;;;11.60;99.90;;;;;;6241589;28;20190;-67
2022/09/15 04:43:29;;;;;;;1.85;1.35;;;11.50;99.90;;;;;;6240634;28;20587;-67
2022/09/15 04:46:33;;;;;;;1.23;1.10;;;11.50;99.90;;;;;;6241287;28;20195;-67
2022/09/15 04:49:39;;;;;;;1.40;1.20;;;11.50;99.90;;;;;;6240613;28;20245;-67
2022/09/15 04:52:45;;;;;;;2.25;1.20;;;11.70;99.90;;;;;;6240544;28;20233;-68
2022/09/15 04:55:49;;;;;;;2.22;1.42;;;11.70;99.90;;;;;;6240766;28;20485;-68
2022/09/15 04:58:55;;;;;;;1.50;1.35;;;11.70;99.90;;;;;;6240478;28;20228;-68
2022/09/15 05:02:06;;;;;;;3.65;1.48;;;11.80;99.90;;;;;;6240348;28;20193;-68
2022/09/15 05:05:13;;;;;;;1.27;1.20;;;11.90;99.90;;;;;;6240892;28;20293;-67
2022/09/15 05:08:18;;;;;;;1.27;1.27;;;11.90;99.90;;;;;;6240179;28;20271;-67
2022/09/15 05:11:23;;;;;;;2.08;1.40;;;11.90;99.90;;;;;;6240115;28;20357;-67
2022/09/15 05:14:28;;;;;;;3.10;1.40;;;12.00;99.90;;;;;;6240344;28;20237;-67
2022/09/15 05:17:33;;;;;;;1.40;1.30;;;12.00;99.90;;;;;;6239873;28;20395;-67
2022/09/15 05:20:37;;;;;;;1.27;1.23;;;12.00;99.90;;;;;;6240150;28;20185;-67
2022/09/15 05:23:44;;;;;;;2.83;1.23;;;12.00;99.90;;;;;;6239943;28;20240;-68
2022/09/15 05:26:48;;;;;;;2.17;1.73;;;12.10;99.90;;;;;;6239969;28;20381;-68
2022/09/15 05:29:53;;;;;;;5.50;1.50;;;12.10;99.90;;;;;;6240019;28;20272;-67
2022/09/15 05:33:17;;;;;;;3.20;1.60;;;12.10;99.90;;;;;;6238551;28;20251;-67
2022/09/15 05:36:23;;;;;;;2.17;1.80;;;12.20;99.90;;;;;;6239735;28;20260;-67
2022/09/15 05:39:30;;;;;;;1.58;1.38;;;12.20;99.90;;;;;;6239633;28;20252;-67
2022/09/15 05:42:35;;;;;;;3.95;1.80;;;12.10;99.90;;;;;;6239653;28;20275;-68
2022/09/15 05:45:41;;;;;;;9.88;2.13;;;12.20;99.90;;;;;;6239820;28;20209;-68
2022/09/15 05:48:46;;;;;;;5.90;1.75;;;12.20;99.90;;;;;;6239609;28;20296;-68
2022/09/15 05:51:50;;;;;;;4.28;2.05;;;12.30;99.90;;;;;;6239746;28;20217;-67
2022/09/15 05:54:56;;;;;;;7.30;2.17;;;12.30;99.90;;;;;;6263831;28;20231;-68
2022/09/15 05:58:02;;;;;;;13.90;2.78;;;12.30;99.90;;;;;;6263791;28;20244;-68
2022/09/15 06:01:08;;;;;;;26.60;3.15;;;12.30;99.90;;;;;;6263758;28;20208;-68
2022/09/15 06:04:12;;;;;;;12.27;2.63;;;12.30;99.90;;;;;;6263479;28;20244;-68
2022/09/15 06:07:17;;;;;;;8.57;2.38;;;12.40;99.90;;;;;;6263054;28;20396;-69
2022/09/15 06:10:23;;;;;;;4.40;1.92;;;12.50;99.90;;;;;;6263644;28;20189;-69
2022/09/15 06:13:28;;;;;;;8.60;2.38;;;12.40;99.90;;;;;;6262889;28;20228;-69
2022/09/15 06:16:34;;;;;;;23.27;2.90;;;12.50;99.90;;;;;;6263665;28;20192;-68
2022/09/15 06:19:38;;;;;;;16.92;2.33;;;12.50;99.90;;;;;;6263233;28;20303;-68
2022/09/15 06:22:42;;;;;;;13.98;2.35;;;12.50;99.90;;;;;;6263101;28;20235;-68
2022/09/15 06:25:48;;;;;;;7.90;1.70;;;12.50;99.90;;;;;;6263508;28;20191;-69
2022/09/15 06:28:55;;;;;;;47.40;3.88;;;12.60;99.90;;;;;;6262928;28;20421;-69
2022/09/15 06:32:01;;;;;;;8.95;1.75;;;12.60;99.90;;;;;;6261244;28;20300;-69
2022/09/15 06:35:06;;;;;;;6.03;1.58;;;12.60;99.90;;;;;;6262855;28;20212;-68
2022/09/15 06:38:11;;;;;;;12.77;1.67;;;12.60;99.90;;;;;;6262642;28;20228;-68
2022/09/15 06:41:17;;;;;;;1.33;1.23;;;12.70;99.90;;;;;;6262692;28;20336;-68
2022/09/15 06:44:22;;;;;;;14.13;2.67;;;12.70;99.90;;;;;;6261366;28;20327;-68
2022/09/15 06:47:32;;;;;;;9.50;1.33;;;12.80;99.90;;;;;;6262083;28;20228;-68
2022/09/15 06:50:36;;;;;;;18.33;2.13;;;12.80;99.90;;;;;;6262397;28;20480;-68
2022/09/15 06:53:41;;;;;;;9.10;1.50;;;12.90;99.90;;;;;;6262313;28;20239;-68
2022/09/15 06:56:47;;;;;;;11.15;1.63;;;12.90;99.90;;;;;;6262652;28;20189;-67
2022/09/15 06:59:51;;;;;;;4.72;1.48;;;13.00;99.90;;;;;;6262373;28;20200;-68
2022/09/15 07:02:56;;;;;;;7.25;1.50;;;13.00;99.90;;;;;;6261609;28;20510;-67
2022/09/15 07:06:00;;;;;;;2.22;1.20;;;13.00;99.90;;;;;;6262123;28;20480;-68
2022/09/15 07:09:05;;;;;;;11.55;1.77;;;13.00;99.90;;;;;;6262048;28;20240;-68
2022/09/15 07:12:12;;;;;;;15.80;2.13;;;13.00;99.90;;;;;;6261672;28;20258;-68
2022/09/15 07:15:16;;;;;;;48.10;4.35;;;13.10;99.90;;;;;;6262426;28;20279;-68
2022/09/15 07:18:21;;;;;;;2.85;1.30;;;13.10;99.90;;;;;;6261877;28;20295;-68
2022/09/15 07:21:25;;;;;;;0.95;0.90;;;13.20;99.90;;;;;;6262243;28;20211;-67
2022/09/15 07:24:29;;;;;;;4.25;1.23;;;13.20;99.90;;;;;;6261787;28;20591;-68
2022/09/15 07:27:35;;;;;;;2.80;0.98;;;13.20;99.90;;;;;;6261343;28;20236;-68
2022/09/15 07:30:39;;;;;;;5.35;1.30;;;13.20;99.90;;;;;;6261745;28;20391;-68
2022/09/15 07:33:45;;;;;;;2.03;0.90;;;13.20;99.90;;;;;;6261431;28;20235;-68
2022/09/15 07:36:49;;;;;;;4.78;1.00;;;13.20;99.90;;;;;;6262021;28;20212;-68
2022/09/15 07:39:53;;;;;;;6.50;1.17;;;13.20;99.90;;;;;;6261202;28;20287;-68
2022/09/15 07:42:59;;;;;;;2.28;1.08;;;13.30;99.90;;;;;;6261316;28;20473;-68
2022/09/15 07:46:04;;;;;;;3.33;0.90;;;13.40;99.90;;;;;;6261536;28;20243;-68
2022/09/15 07:49:11;;;;;;;2.92;0.93;;;13.50;99.90;;;;;;6261269;28;20277;-68
2022/09/15 07:52:15;;;;;;;10.50;4.03;;;13.50;99.90;;;;;;6260828;28;20644;-68
2022/09/15 07:55:19;;;;;;;5.15;2.97;;;13.60;99.90;;;;;;6261424;28;20216;-68
2022/09/15 07:58:25;;;;;;;9.95;4.20;;;13.70;99.90;;;;;;6261153;28;20228;-68
2022/09/15 08:01:29;;;;;;;7.93;3.17;;;13.80;99.90;;;;;;6261775;28;20220;-68
2022/09/15 08:04:34;;;;;;;11.98;4.50;;;14.00;99.90;;;;;;6261376;28;20286;-68
2022/09/15 08:07:39;;;;;;;2.22;1.60;;;14.00;99.90;;;;;;6260832;28;20299;-68
2022/09/15 08:10:43;;;;;;;1.58;1.10;;;14.10;99.90;;;;;;6277034;28;20189;-67
2022/09/15 08:13:51;;;;;;;10.30;4.13;;;14.10;99.90;;;;;;6245093;28;20232;-67
2022/09/15 08:16:55;;;;;;;3.58;1.80;;;14.10;99.90;;;;;;6236514;28;20208;-68
2022/09/15 08:19:59;;;;;;;0.98;0.98;;;14.10;99.90;;;;;;6237099;28;20190;-68
2022/09/15 08:23:03;;;;;;;6.70;2.92;;;14.10;99.90;;;;;;6236588;28;20232;-68
2022/09/15 08:26:08;;;;;;;3.90;1.92;;;14.10;99.90;;;;;;6236559;28;20391;-69
2022/09/15 08:29:18;;;;;;;20.05;6.88;;;14.10;99.90;;;;;;6236204;28;20240;-69
2022/09/15 08:32:23;;;;;;;1.27;1.27;;;14.10;99.90;;;;;;6235966;28;20405;-69
2022/09/15 08:35:27;;;;;;;1.45;0.80;;;14.10;99.90;;;;;;6236677;28;20213;-68
2022/09/15 08:38:32;;;;;;;13.63;4.28;;;14.20;99.90;;;;;;6236256;28;20228;-69
2022/09/15 08:41:38;;;;;;;36.05;9.32;;;14.30;99.90;;;;;;6236644;28;20209;-69
2022/09/15 08:44:50;;;;;;;3.13;1.88;;;14.40;99.90;;;;;;6236182;28;20304;-69
2022/09/15 08:47:58;;;;;;;0.82;0.82;;;14.40;99.90;;;;;;6235883;28;20544;-69
2022/09/15 08:51:07;;;;;;;0.63;0.63;;;14.50;99.90;;;;;;6236702;28;20256;-69
2022/09/15 08:54:19;;;;;;;1.33;0.60;;;14.60;99.90;;;;;;6235749;28;20248;-69
2022/09/15 08:57:24;;;;;;;0.52;0.52;;;14.60;99.90;;;;;;6236100;28;20335;-68
2022/09/15 09:00:31;;;;;;;0.60;0.60;;;14.60;99.90;;;;;;6236407;28;20185;-67
2022/09/15 09:03:48;;;;;;;1.00;1.00;;;14.60;99.90;;;;;;6235671;28;20244;-68
2022/09/15 09:07:02;;;;;;;1.13;1.00;;;14.60;99.90;;;;;;6237161;28;20263;-68
2022/09/15 09:10:12;;;;;;;0.80;0.80;;;14.60;99.90;;;;;;6240494;28;20186;-68
2022/09/15 09:13:29;;;;;;;0.80;0.70;;;14.70;99.90;;;;;;6240120;28;20540;-69
2022/09/15 09:16:52;;;;;;;5.78;0.77;;;14.90;99.90;;;;;;6240385;28;20220;-69
2022/09/15 09:20:14;;;;;;;0.50;0.50;;;14.80;99.90;;;;;;6264938;28;20204;-68
2022/09/15 09:23:22;;;;;;;0.85;0.55;;;14.80;99.90;;;;;;6264814;28;20391;-68
2022/09/15 09:26:29;;;;;;;0.60;0.60;;;14.80;99.90;;;;;;6264717;28;20504;-68
2022/09/15 09:29:39;;;;;;;0.60;0.60;;;14.90;99.90;;;;;;6264476;28;20550;-68
2022/09/15 09:32:49;;;;;;;0.60;0.50;;;15.10;99.90;;;;;;6264202;28;20228;-67
2022/09/15 09:35:53;;;;;;;2.20;0.70;;;14.90;99.90;;;;;;6264283;28;20447;-67
2022/09/15 09:38:58;;;;;;;1.02;0.65;;;15.00;99.90;;;;;;6264222;28;20244;-68
2022/09/15 09:42:04;;;;;;;1.80;0.90;;;15.00;99.90;;;;;;6263862;28;20252;-67
2022/09/15 09:45:14;;;;;;;0.90;0.90;;;15.20;99.90;;;;;;6264767;28;20193;-69
2022/09/15 09:48:22;;;;;;;0.90;0.90;;;15.10;99.90;;;;;;6264200;28;20295;-69
2022/09/15 09:51:38;;;;;;;1.42;1.17;;;15.20;99.90;;;;;;6264057;28;20232;-68
2022/09/15 09:54:43;;;;;;;1.02;0.90;;;15.10;99.90;;;;;;6263742;28;20320;-69
2022/09/15 09:57:47;;;;;;;0.88;0.88;;;15.20;99.90;;;;;;6263614;28;20431;-68
2022/09/15 10:00:52;;;;;;;0.60;0.60;;;15.20;99.90;;;;;;6263804;28;20453;-68
2022/09/15 10:04:16;;;;;;;1.40;0.68;;;15.30;99.90;;;;;;6263063;28;20270;-69
2022/09/15 10:07:22;;;;;;;1.58;1.05;;;15.30;99.90;;;;;;6263736;28;20275;-69
2022/09/15 10:10:31;;;;;;;0.60;0.60;;;15.20;99.90;;;;;;6263635;28;20388;-69
2022/09/15 10:13:36;;;;;;;0.60;0.60;;;15.20;99.90;;;;;;6263520;28;20270;-68
2022/09/15 10:16:41;;;;;;;0.88;0.88;;;15.20;99.90;;;;;;6263455;28;20450;-67
2022/09/15 10:19:48;;;;;;;0.75;0.75;;;15.20;99.90;;;;;;6263076;28;20232;-68
2022/09/15 10:22:53;;;;;;;0.50;0.50;;;15.10;99.90;;;;;;6263305;28;20228;-68
2022/09/15 10:26:18;;;;;;;0.77;0.75;;;15.20;99.90;;;;;;6263206;28;20189;-67
2022/09/15 10:29:23;;;;;;;1.20;1.08;;;15.30;99.90;;;;;;6263344;28;20236;-68
2022/09/15 10:32:30;;;;;;;0.70;0.70;;;15.20;99.90;;;;;;6263217;28;20280;-68
2022/09/15 10:35:41;;;;;;;1.83;1.80;;;15.30;99.90;;;;;;6263300;28;20213;-68
2022/09/15 10:38:48;;;;;;;2.42;0.90;;;15.30;99.90;;;;;;6262438;28;20251;-68
2022/09/15 10:42:03;;;;;;;1.30;1.30;;;15.30;99.90;;;;;;6262851;28;20184;-68
2022/09/15 10:45:27;;;;;;;1.13;1.13;;;15.10;99.90;;;;;;6262707;28;20212;-67
2022/09/15 10:48:45;;;;;;;0.80;0.80;;;14.90;99.90;;;;;;6262535;28;20228;-68
2022/09/15 10:51:59;;;;;;;0.70;0.70;;;15.00;99.90;;;;;;6262704;28;20470;-70
2022/09/15 10:55:27;;;;;;;1.05;0.98;;;15.10;99.90;;;;;;6262760;28;20292;-69
2022/09/15 10:59:21;;;;;;;3.05;0.80;;;15.00;99.90;;;;;;6262087;28;20233;-70
2022/09/15 11:02:57;;;;;;;0.70;0.70;;;15.10;99.90;;;;;;6262115;28;20232;-69
2022/09/15 11:06:11;;;;;;;0.52;0.52;;;15.20;99.90;;;;;;6262523;28;20447;-69
2022/09/15 11:09:22;;;;;;;1.10;0.45;;;15.20;99.90;;;;;;6262216;28;20528;-68
2022/09/15 11:12:40;;;;;;;0.55;0.55;;;15.10;99.90;;;;;;6237559;28;20237;-70
2022/09/15 11:15:56;;;;;;;0.50;0.50;;;14.90;99.90;;;;;;6237417;28;20411;-69
2022/09/15 11:19:21;;;;;;;0.50;0.50;;;14.90;99.90;;;;;;6237355;28;20309;-68
2022/09/15 11:22:29;;;;;;;1.35;0.60;;;14.90;99.90;;;;;;6237042;28;20291;-68
2022/09/15 11:25:40;;;;;;;0.68;0.68;;;14.90;99.90;;;;;;6238027;28;20257;-69
2022/09/15 11:28:49;;;;;;;0.50;0.50;;;14.90;99.90;;;;;;6237043;28;20229;-69
2022/09/15 11:31:58;;;;;;;0.60;0.60;;;14.90;99.90;;;;;;6237149;28;20192;-67
2022/09/15 11:35:28;;;;;;;2.80;0.68;;;14.80;99.90;;;;;;6237187;28;20422;-67
2022/09/15 11:38:39;;;;;;;4.00;0.63;;;14.70;99.90;;;;;;6236919;28;20229;-68
2022/09/15 11:41:51;;;;;;;0.80;0.80;;;14.80;99.90;;;;;;6237023;28;20185;-67
2022/09/15 11:44:56;;;;;;;0.60;0.60;;;14.70;99.90;;;;;;6237072;28;20222;-68
2022/09/15 11:48:06;;;;;;;3.30;0.88;;;14.80;99.90;;;;;;6236613;28;20233;-68
2022/09/15 11:51:12;;;;;;;1.00;0.57;;;14.80;99.90;;;;;;6237482;28;20257;-68
2022/09/15 11:54:24;;;;;;;0.60;0.60;;;14.90;99.90;;;;;;6235583;28;20567;-68
2022/09/15 11:57:36;;;;;;;0.82;0.50;;;14.90;99.90;;;;;;6236593;28;20252;-67
2022/09/15 12:00:49;;;;;;;0.60;0.60;;;14.80;99.90;;;;;;6236904;28;20215;-69
2022/09/15 12:03:58;;;;;;;0.55;0.50;;;14.50;99.90;;;;;;6236194;28;20236;-68
2022/09/15 12:07:09;;;;;;;0.75;0.75;;;14.40;99.90;;;;;;6235192;28;20189;-68
2022/09/15 12:10:24;;;;;;;0.60;0.60;;;14.50;99.90;;;;;;6219764;28;20209;-68
2022/09/15 12:13:31;;;;;;;1.95;0.60;;;14.50;99.90;;;;;;6236324;28;20255;-67
2022/09/15 12:16:35;;;;;;;0.68;0.68;;;14.50;99.90;;;;;;6236543;28;20236;-67
2022/09/15 12:19:51;;;;;;;0.60;0.60;;;14.50;99.90;;;;;;6236618;28;20229;-68
2022/09/15 12:23:02;;;;;;;0.70;0.70;;;14.50;99.90;;;;;;6236421;28;20236;-68
2022/09/15 12:26:17;;;;;;;0.75;0.75;;;14.60;99.90;;;;;;6237089;28;20305;-68
2022/09/15 12:29:39;;;;;;;0.60;0.60;;;14.60;99.90;;;;;;6236498;28;20279;-69
2022/09/15 12:32:45;;;;;;;1.48;0.60;;;14.60;99.90;;;;;;6235101;28;20252;-68
2022/09/15 12:35:50;;;;;;;0.70;0.70;;;14.50;99.90;;;;;;6236749;28;20213;-68
2022/09/15 12:38:55;;;;;;;0.70;0.70;;;14.50;99.90;;;;;;6236075;28;20583;-68
2022/09/15 12:42:13;;;;;;;2.55;0.95;;;14.60;99.90;;;;;;6238909;28;20475;-68
2022/09/15 12:45:24;;;;;;;2.17;0.93;;;14.70;99.90;;;;;;6241090;28;20417;-67
2022/09/15 12:48:30;;;;;;;0.70;0.70;;;14.70;99.90;;;;;;6241041;28;20296;-68
2022/09/15 12:51:34;;;;;;;2.25;0.82;;;14.60;99.90;;;;;;6241067;28;20185;-68
2022/09/15 12:54:42;;;;;;;0.68;0.68;;;14.60;99.90;;;;;;6239814;28;20229;-69
2022/09/15 12:57:55;;;;;;;0.55;0.52;;;14.50;99.90;;;;;;6240391;28;20240;-68
2022/09/15 13:01:34;;;;;;;2.35;0.50;;;14.60;99.90;;;;;;6240776;28;20481;-67
2022/09/15 13:04:56;;;;;;;3.58;0.70;;;14.70;99.90;;;;;;6240100;28;20245;-68
2022/09/15 13:08:00;;;;;;;0.60;0.60;;;14.80;99.90;;;;;;6240552;28;20396;-68
2022/09/15 13:11:08;;;;;;;0.70;0.70;;;14.80;99.90;;;;;;6240748;28;20190;-68
2022/09/15 13:14:25;;;;;;;0.60;0.60;;;14.70;99.90;;;;;;6240455;28;20229;-68
2022/09/15 13:17:31;;;;;;;1.40;0.73;;;14.60;99.90;;;;;;6239959;28;20449;-68
2022/09/15 13:20:38;;;;;;;0.63;0.63;;;14.60;99.90;;;;;;6240618;28;20469;-68
2022/09/15 13:23:46;;;;;;;4.25;1.00;;;14.50;99.90;;;;;;6239804;28;20298;-68
2022/09/15 13:26:54;;;;;;;1.92;1.25;;;14.50;99.90;;;;;;6240066;28;20200;-68
2022/09/15 13:30:08;;;;;;;0.88;0.88;;;14.60;99.90;;;;;;6264282;28;20484;-69
2022/09/15 13:33:33;;;;;;;2.17;0.70;;;14.70;99.90;;;;;;6253397;28;20229;-68
2022/09/15 13:37:17;;;;;;;0.50;0.50;;;14.70;99.90;;;;;;6240632;28;20245;-68
2022/09/15 13:41:29;;;;;;;0.50;0.50;;;14.60;99.90;;;;;;6264347;28;20488;-69
2022/09/15 13:45:20;;;;;;;1.00;0.70;;;14.40;99.90;;;;;;6235034;28;20251;-68
2022/09/15 13:48:49;;;;;;;1.58;0.93;;;14.60;99.90;;;;;;6264082;28;20564;-68
2022/09/15 13:51:58;;;;;;;0.85;0.60;;;14.70;99.90;;;;;;6263606;28;20257;-68
2022/09/15 13:55:18;;;;;;;0.70;0.70;;;14.80;99.90;;;;;;6264304;28;20191;-68
2022/09/15 13:58:24;;;;;;;0.60;0.60;;;14.80;99.90;;;;;;6263446;28;20481;-68
2022/09/15 14:01:48;;;;;;;0.50;0.50;;;14.80;99.90;;;;;;6263821;28;20224;-68
2022/09/15 14:04:54;;;;;;;1.77;0.60;;;14.80;99.90;;;;;;6264101;28;20391;-67
2022/09/15 14:08:03;;;;;;;0.63;0.63;;;14.90;99.90;;;;;;6263851;28;20232;-67
2022/09/15 14:11:09;;;;;;;0.98;0.50;;;15.00;99.90;;;;;;6264219;28;20191;-67
2022/09/15 14:14:36;;;;;;;1.45;0.57;;;15.00;99.90;;;;;;6263492;28;20228;-68
2022/09/15 14:17:45;;;;;;;0.80;0.60;;;15.10;99.90;;;;;;6263318;28;20303;-67
2022/09/15 14:21:01;;;;;;;0.57;0.57;;;15.00;99.90;;;;;;6263850;28;20188;-67
2022/09/15 14:24:17;;;;;;;0.60;0.60;;;15.10;99.90;;;;;;6263189;28;20299;-68
2022/09/15 14:27:24;;;;;;;1.05;0.65;;;15.00;99.90;;;;;;6262863;28;20241;-68
2022/09/15 14:30:31;;;;;;;0.68;0.60;;;15.10;99.90;;;;;;6263812;28;20252;-68
2022/09/15 14:33:37;;;;;;;1.05;0.73;;;15.00;99.90;;;;;;6262971;28;20283;-68
2022/09/15 14:36:43;;;;;;;3.70;0.63;;;15.10;99.90;;;;;;6263346;28;20218;-68
2022/09/15 14:39:53;;;;;;;1.08;0.73;;;15.10;99.90;;;;;;6262874;28;20542;-68
2022/09/15 14:42:58;;;;;;;2.60;0.70;;;15.00;99.90;;;;;;6262866;28;20299;-67
2022/09/15 14:46:10;;;;;;;0.60;0.60;;;15.10;99.90;;;;;;6262996;28;20295;-67
2022/09/15 14:49:15;;;;;;;0.68;0.68;;;15.00;99.90;;;;;;6262598;28;20232;-67
2022/09/15 14:52:28;;;;;;;0.50;0.50;;;15.00;99.90;;;;;;6261154;28;20524;-68
2022/09/15 14:55:37;;;;;;;0.60;0.60;;;14.90;99.90;;;;;;6263091;28;20248;-68
2022/09/15 14:58:44;;;;;;;0.60;0.60;;;14.80;99.90;;;;;;6262327;28;20241;-68
2022/09/15 15:01:54;;;;;;;1.88;0.55;;;14.80;99.90;;;;;;6262956;28;20219;-69
2022/09/15 15:05:06;;;;;;;0.60;0.60;;;14.80;99.90;;;;;;6261830;28;20282;-68
2022/09/15 15:08:32;;;;;;;2.15;0.80;;;14.80;99.90;;;;;;6261938;28;20244;-68
2022/09/15 15:11:37;;;;;;;2.75;0.70;;;14.80;99.90;;;;;;6262132;28;20283;-68
2022/09/15 15:14:42;;;;;;;1.08;0.70;;;14.80;99.90;;;;;;6262193;28;20229;-68
2022/09/15 15:17:49;;;;;;;0.60;0.60;;;14.80;99.90;;;;;;6261958;28;20231;-67
2022/09/15 15:20:54;;;;;;;3.65;0.77;;;14.80;99.90;;;;;;6261806;28;20376;-67
2022/09/15 15:23:59;;;;;;;1.17;0.80;;;14.60;99.90;;;;;;6261780;28;20224;-67
2022/09/15 15:27:40;;;;;;;0.60;0.60;;;14.50;99.90;;;;;;6261199;28;20259;-67
2022/09/15 15:30:47;;;;;;;0.80;0.77;;;14.50;99.90;;;;;;6258464;28;20308;-68
2022/09/15 15:33:55;;;;;;;0.70;0.70;;;14.60;99.90;;;;;;6261911;28;20269;-67
2022/09/15 15:37:03;;;;;;;0.60;0.60;;;14.50;99.90;;;;;;6261080;28;20240;-68
2022/09/15 15:40:17;;;;;;;1.15;0.60;;;14.40;99.90;;;;;;6261566;28;20472;-68
2022/09/15 15:43:25;;;;;;;0.55;0.50;;;14.30;99.90;;;;;;6261258;28;20291;-68
2022/09/15 15:46:48;;;;;;;0.80;0.80;;;14.20;99.90;;;;;;6261451;28;20252;-67
2022/09/15 15:49:54;;;;;;;0.70;0.70;;;14.30;99.90;;;;;;6260943;28;20229;-68
2022/09/15 15:53:16;;;;;;;0.90;0.90;;;14.20;99.90;;;;;;6261267;28;20235;-68
2022/09/15 15:56:24;;;;;;;0.80;0.73;;;13.90;99.90;;;;;;6261686;28;20264;-67
2022/09/15 15:59:28;;;;;;;0.80;0.80;;;14.10;99.90;;;;;;6261031;28;20354;-68
2022/09/15 16:02:32;;;;;;;0.98;0.98;;;14.10;99.90;;;;;;6260974;28;20310;-68
2022/09/15 16:05:38;;;;;;;1.00;1.00;;;14.00;99.90;;;;;;6261146;28;20381;-68
2022/09/15 16:08:44;;;;;;;0.75;0.75;;;14.00;99.90;;;;;;6260942;28;20228;-68
2022/09/15 16:11:49;;;;;;;0.65;0.65;;;14.10;99.90;;;;;;6261109;28;20189;-67
2022/09/15 16:14:53;;;;;;;0.75;0.75;;;14.20;99.90;;;;;;6261063;28;20197;-68
2022/09/15 16:17:58;;;;;;;0.80;0.80;;;14.10;99.90;;;;;;6260476;28;20535;-67
2022/09/15 16:21:02;;;;;;;0.90;0.90;;;14.20;99.90;;;;;;6261385;28;20252;-67
2022/09/15 16:24:13;;;;;;;0.80;0.80;;;14.10;99.90;;;;;;6260760;28;20535;-68